createdAt,value
2023-03-19T00:01:08.507Z,18.50
2023-03-19T00:03:44.714Z,14.40
2023-03-19T00:06:14.372Z,14.80
2023-03-19T00:08:43.302Z,16.60
2023-03-19T00:11:13.695Z,15.00
2023-03-19T00:13:42.720Z,15.70
2023-03-19T00:16:11.788Z,16.30
2023-03-19T00:18:41.272Z,16.40
2023-03-19T00:21:10.253Z,16.80
2023-03-19T00:23:39.268Z,17.30
2023-03-19T00:26:08.561Z,15.60
2023-03-19T00:28:37.552Z,13.50
2023-03-19T00:31:11.903Z,15.60
2023-03-19T00:33:42.189Z,16.50
2023-03-19T00:36:12.788Z,16.50
2023-03-19T00:38:41.730Z,15.60
2023-03-19T00:41:11.118Z,20.00
2023-03-19T00:43:40.844Z,18.80
2023-03-19T00:46:09.786Z,18.00
2023-03-19T00:48:38.682Z,17.70
2023-03-19T00:51:10.277Z,18.30
2023-03-19T00:53:40.082Z,18.00
2023-03-19T00:56:11.001Z,15.80
2023-03-19T00:58:40.850Z,18.20
2023-03-19T01:01:10.570Z,18.70
2023-03-19T01:03:40.366Z,18.50
2023-03-19T01:06:09.570Z,18.10
2023-03-19T01:08:38.613Z,20.10
2023-03-19T01:11:10.584Z,18.70
2023-03-19T01:13:40.833Z,18.40
2023-03-19T01:16:10.465Z,17.40
2023-03-19T01:18:39.584Z,18.70
2023-03-19T01:21:08.607Z,20.60
2023-03-19T01:23:37.624Z,19.70
2023-03-19T01:26:07.861Z,18.60
2023-03-19T01:28:36.843Z,19.50
2023-03-19T01:31:08.464Z,18.80
2023-03-19T01:33:38.097Z,22.50
2023-03-19T01:36:09.264Z,18.70
2023-03-19T01:38:38.422Z,21.80
2023-03-19T01:41:07.674Z,22.70
2023-03-19T01:43:36.942Z,25.40
2023-03-19T01:46:14.032Z,20.30
2023-03-19T01:48:46.054Z,21.20
2023-03-19T01:51:18.953Z,22.00
2023-03-19T01:53:50.112Z,20.40
2023-03-19T01:56:22.394Z,23.90
2023-03-19T01:58:57.139Z,24.40
2023-03-19T02:01:28.790Z,23.90
2023-03-19T02:03:59.463Z,22.30
2023-03-19T02:06:29.818Z,21.90
2023-03-19T02:08:59.171Z,26.40
2023-03-19T02:11:28.365Z,23.60
2023-03-19T02:13:57.309Z,22.00
2023-03-19T02:16:26.693Z,22.40
2023-03-19T02:18:56.396Z,22.60
2023-03-19T02:21:25.382Z,23.10
2023-03-19T02:24:02.410Z,24.50
2023-03-19T02:26:31.971Z,24.50
2023-03-19T02:29:01.065Z,25.20
2023-03-19T02:31:30.000Z,22.80
2023-03-19T02:34:01.551Z,24.70
2023-03-19T02:36:36.682Z,25.30
2023-03-19T02:39:16.426Z,22.20
2023-03-19T02:41:45.690Z,26.20
2023-03-19T02:44:16.742Z,23.00
2023-03-19T02:46:45.781Z,25.90
2023-03-19T02:49:14.756Z,23.40
2023-03-19T02:51:43.660Z,24.90
2023-03-19T02:54:12.691Z,24.70
2023-03-19T02:56:41.747Z,26.60
2023-03-19T02:59:10.745Z,22.90
2023-03-19T03:01:39.688Z,24.60
2023-03-19T03:04:08.762Z,24.70
2023-03-19T03:06:37.652Z,24.30
2023-03-19T03:09:06.635Z,23.50
2023-03-19T03:11:35.664Z,27.20
2023-03-19T03:14:04.856Z,24.10
2023-03-19T03:16:33.883Z,24.50
2023-03-19T03:19:03.093Z,24.70
2023-03-19T03:21:35.369Z,26.90
2023-03-19T03:24:05.220Z,26.50
2023-03-19T03:26:34.188Z,24.50
2023-03-19T03:29:04.392Z,28.00
2023-03-19T03:31:34.703Z,26.50
2023-03-19T03:34:03.999Z,26.30
2023-03-19T03:36:33.188Z,25.90
2023-03-19T03:39:02.405Z,25.00
2023-03-19T03:41:31.303Z,26.70
2023-03-19T03:44:00.698Z,24.30
2023-03-19T03:46:29.651Z,25.70
2023-03-19T03:48:58.657Z,26.50
2023-03-19T03:51:28.062Z,22.90
2023-03-19T03:53:57.028Z,27.00
2023-03-19T03:56:26.700Z,27.40
2023-03-19T03:58:55.998Z,24.70
2023-03-19T04:01:25.275Z,23.30
2023-03-19T04:03:55.433Z,24.60
2023-03-19T04:06:26.530Z,25.10
2023-03-19T04:08:55.918Z,29.30
2023-03-19T04:11:25.255Z,23.30
2023-03-19T04:13:57.051Z,27.20
2023-03-19T04:16:28.058Z,25.70
2023-03-19T04:18:57.180Z,27.60
2023-03-19T04:21:26.105Z,24.90
2023-03-19T04:23:55.036Z,29.10
2023-03-19T04:26:24.398Z,26.40
2023-03-19T04:28:53.316Z,25.90
2023-03-19T04:31:22.384Z,27.00
2023-03-19T04:33:51.915Z,28.80
2023-03-19T04:36:21.020Z,27.10
2023-03-19T04:38:49.928Z,26.50
2023-03-19T04:41:18.985Z,28.20
2023-03-19T04:43:47.840Z,27.90
2023-03-19T04:46:17.447Z,26.00
2023-03-19T04:48:46.470Z,25.80
2023-03-19T04:51:16.290Z,26.90
2023-03-19T04:53:45.208Z,24.90
2023-03-19T04:56:15.714Z,24.20
2023-03-19T04:58:45.531Z,27.60
2023-03-19T05:01:14.597Z,23.00
2023-03-19T05:03:43.574Z,27.00
2023-03-19T05:06:12.813Z,25.30
2023-03-19T05:08:41.750Z,24.60
2023-03-19T05:11:10.837Z,22.50
2023-03-19T05:13:39.716Z,25.40
2023-03-19T05:16:09.977Z,22.70
2023-03-19T05:18:41.248Z,25.50
2023-03-19T05:21:12.815Z,26.90
2023-03-19T05:23:42.037Z,24.80
2023-03-19T05:26:11.172Z,26.20
2023-03-19T05:28:40.125Z,27.10
2023-03-19T05:31:09.188Z,28.60
2023-03-19T05:33:38.236Z,30.30
2023-03-19T05:36:08.843Z,28.80
2023-03-19T05:38:38.832Z,29.60
2023-03-19T05:41:08.440Z,31.90
2023-03-19T05:43:37.586Z,28.60
2023-03-19T05:46:07.258Z,29.90
2023-03-19T05:48:36.260Z,29.80
2023-03-19T05:51:06.186Z,28.10
2023-03-19T05:53:35.689Z,28.00
2023-03-19T05:56:05.321Z,29.10
2023-03-19T05:58:34.202Z,28.60
2023-03-19T06:01:03.117Z,25.70
2023-03-19T06:03:32.091Z,29.40
2023-03-19T06:06:01.182Z,28.70
2023-03-19T06:08:30.145Z,27.70
2023-03-19T06:10:59.140Z,28.30
2023-03-19T06:13:28.197Z,26.70
2023-03-19T06:15:57.174Z,28.60
2023-03-19T06:18:26.225Z,26.20
2023-03-19T06:20:55.078Z,24.70
2023-03-19T06:23:24.014Z,24.40
2023-03-19T06:25:53.087Z,26.60
2023-03-19T06:28:22.203Z,25.00
2023-03-19T06:30:51.172Z,24.40
2023-03-19T06:33:20.180Z,21.90
2023-03-19T06:35:49.365Z,25.10
2023-03-19T06:38:18.415Z,22.80
2023-03-19T06:40:47.763Z,23.70
2023-03-19T06:43:16.792Z,22.70
2023-03-19T06:45:46.622Z,24.20
2023-03-19T06:48:16.476Z,21.90
2023-03-19T06:50:46.271Z,21.70
2023-03-19T06:53:15.467Z,24.80
2023-03-19T06:55:46.795Z,23.20
2023-03-19T06:58:15.874Z,26.50
2023-03-19T07:00:44.850Z,24.80
2023-03-19T07:03:13.779Z,24.10
2023-03-19T07:05:42.826Z,26.30
2023-03-19T07:08:11.835Z,25.60
2023-03-19T07:10:40.834Z,27.20
2023-03-19T07:13:09.987Z,26.00
2023-03-19T07:15:39.063Z,25.70
2023-03-19T07:18:08.048Z,27.60
2023-03-19T07:20:37.252Z,28.20
2023-03-19T07:23:06.463Z,27.60
2023-03-19T07:25:35.533Z,24.30
2023-03-19T07:28:05.276Z,25.30
2023-03-19T07:30:35.410Z,24.40
2023-03-19T07:33:05.648Z,26.00
2023-03-19T07:35:34.651Z,23.10
2023-03-19T07:38:04.073Z,24.20
2023-03-19T07:40:33.542Z,22.40
2023-03-19T07:43:03.147Z,20.60
2023-03-19T07:45:32.478Z,18.80
2023-03-19T07:48:02.984Z,23.00
2023-03-19T07:50:32.623Z,22.70
2023-03-19T07:53:01.955Z,22.00
2023-03-19T07:55:30.961Z,24.00
2023-03-19T07:58:01.523Z,21.00
2023-03-19T08:00:30.560Z,22.50
2023-03-19T08:02:59.624Z,24.70
2023-03-19T08:05:28.655Z,23.40
2023-03-19T08:07:57.651Z,21.10
2023-03-19T08:10:26.818Z,21.00
2023-03-19T08:12:55.990Z,21.00
2023-03-19T08:15:25.373Z,20.80
2023-03-19T08:17:59.506Z,21.50
2023-03-19T08:20:28.977Z,22.20
2023-03-19T08:22:58.003Z,19.30
2023-03-19T08:25:27.003Z,19.70
2023-03-19T08:27:56.259Z,20.20
2023-03-19T08:30:25.663Z,19.90
2023-03-19T08:32:54.563Z,21.00
2023-03-19T08:35:23.482Z,21.60
2023-03-19T08:37:52.253Z,21.30
2023-03-19T08:40:21.530Z,21.90
2023-03-19T08:42:50.300Z,22.30
2023-03-19T08:45:20.681Z,22.70
2023-03-19T08:47:50.001Z,21.10
2023-03-19T08:50:19.330Z,22.20
2023-03-19T08:52:48.220Z,18.10
2023-03-19T08:55:17.544Z,19.50
2023-03-19T08:57:46.408Z,20.10
2023-03-19T09:00:18.848Z,22.50
2023-03-19T09:02:47.713Z,17.30
2023-03-19T09:05:19.649Z,23.30
2023-03-19T09:07:48.602Z,16.30
2023-03-19T09:10:17.804Z,18.30
2023-03-19T09:12:48.493Z,20.30
2023-03-19T09:15:17.620Z,18.40
2023-03-19T09:17:46.416Z,18.30
2023-03-19T09:20:15.641Z,16.20
2023-03-19T09:22:44.536Z,18.90
2023-03-19T09:25:13.311Z,17.90
2023-03-19T09:27:42.144Z,18.50
2023-03-19T09:30:13.542Z,16.10
2023-03-19T09:32:42.798Z,17.90
2023-03-19T09:35:11.828Z,20.70
2023-03-19T09:37:40.728Z,20.30
2023-03-19T09:40:17.180Z,23.20
2023-03-19T09:43:00.615Z,21.80
2023-03-19T09:45:29.845Z,19.00
2023-03-19T09:48:05.241Z,17.10
2023-03-19T09:50:35.937Z,21.00
2023-03-19T09:53:14.374Z,19.10
2023-03-19T09:55:47.942Z,19.70
2023-03-19T09:58:20.314Z,19.70
2023-03-19T10:00:52.207Z,21.80
2023-03-19T10:03:34.342Z,21.10
2023-03-19T10:06:16.787Z,19.20
2023-03-19T10:09:05.098Z,19.30
2023-03-19T10:11:47.753Z,20.40
2023-03-19T10:14:43.789Z,22.70
2023-03-19T10:17:18.321Z,18.30
2023-03-19T10:19:51.449Z,18.70
2023-03-19T10:22:23.851Z,17.00
2023-03-19T10:24:54.748Z,16.60
2023-03-19T10:27:26.588Z,18.80
2023-03-19T10:29:55.582Z,15.40
2023-03-19T10:32:35.096Z,18.50
2023-03-19T10:35:09.825Z,16.60
2023-03-19T10:37:38.975Z,16.70
2023-03-19T10:40:19.995Z,20.10
2023-03-19T10:43:04.144Z,17.70
2023-03-19T10:45:35.017Z,14.80
2023-03-19T10:48:05.623Z,15.90
2023-03-19T10:50:37.466Z,17.50
2023-03-19T10:53:23.791Z,14.70
2023-03-19T10:55:55.978Z,14.00
2023-03-19T10:58:27.783Z,12.20
2023-03-19T11:00:58.950Z,15.60
2023-03-19T11:03:33.764Z,13.80
2023-03-19T11:06:16.945Z,15.30
2023-03-19T11:08:55.161Z,16.70
2023-03-19T11:11:42.368Z,17.30
2023-03-19T11:14:16.924Z,14.40
2023-03-19T11:16:51.662Z,17.60
2023-03-19T11:19:23.317Z,14.80
2023-03-19T11:22:08.855Z,13.30
2023-03-19T11:24:40.263Z,15.20
2023-03-19T11:27:10.996Z,12.80
2023-03-19T11:29:42.438Z,13.10
2023-03-19T11:32:25.801Z,12.20
2023-03-19T11:35:00.815Z,10.70
2023-03-19T11:37:47.434Z,12.80
2023-03-19T11:40:27.184Z,13.10
2023-03-19T11:43:06.619Z,11.70
2023-03-19T11:45:42.098Z,11.00
2023-03-19T11:50:58.601Z,11.30
2023-03-19T11:53:31.468Z,12.00
2023-03-19T11:56:13.095Z,9.10
2023-03-19T11:59:23.236Z,13.10
2023-03-19T12:02:31.696Z,8.70
2023-03-19T12:05:14.771Z,11.40
2023-03-19T12:07:51.553Z,9.30
2023-03-19T12:10:40.289Z,8.80
2023-03-19T12:13:21.791Z,9.00
2023-03-19T12:16:00.739Z,8.70
2023-03-19T12:18:47.865Z,9.80
2023-03-19T12:21:24.571Z,10.30
2023-03-19T12:24:03.642Z,8.90
2023-03-19T12:26:48.016Z,10.40
2023-03-19T12:29:24.480Z,10.00
2023-03-19T12:32:15.355Z,9.40
2023-03-19T12:34:48.933Z,8.20
2023-03-19T12:37:24.104Z,9.40
2023-03-19T12:40:07.208Z,11.60
2023-03-19T12:42:41.418Z,8.30
2023-03-19T12:45:26.532Z,7.60
2023-03-19T12:48:01.142Z,8.10
2023-03-19T12:50:34.177Z,8.80
2023-03-19T12:53:09.150Z,8.40
2023-03-19T12:55:42.984Z,9.60
2023-03-19T12:58:22.840Z,9.00
2023-03-19T13:00:58.486Z,9.20
2023-03-19T13:03:37.498Z,9.10
2023-03-19T13:06:12.627Z,8.50
2023-03-19T13:08:47.466Z,9.90
2023-03-19T13:11:26.781Z,11.90
2023-03-19T13:14:02.194Z,9.70
2023-03-19T13:16:39.881Z,5.30
2023-03-19T13:19:21.417Z,10.20
2023-03-19T13:21:54.448Z,8.10
2023-03-19T13:24:27.784Z,7.40
2023-03-19T13:27:00.070Z,8.00
2023-03-19T13:29:30.464Z,6.70
2023-03-19T13:32:06.119Z,8.70
2023-03-19T13:34:37.353Z,8.80
2023-03-19T13:37:13.349Z,8.10
2023-03-19T13:39:43.665Z,7.10
2023-03-19T13:42:36.619Z,7.50
2023-03-19T13:45:33.997Z,8.00
2023-03-19T13:48:24.838Z,9.80
2023-03-19T13:51:02.482Z,7.60
2023-03-19T13:53:41.868Z,7.40
2023-03-19T13:56:28.695Z,6.00
2023-03-19T13:59:27.199Z,7.70
2023-03-19T14:01:56.857Z,6.30
2023-03-19T14:04:28.983Z,6.70
2023-03-19T14:07:09.835Z,6.80
2023-03-19T14:09:42.558Z,6.80
2023-03-19T14:12:33.857Z,7.20
2023-03-19T14:15:17.687Z,7.20
2023-03-19T14:17:56.515Z,8.20
2023-03-19T14:20:37.094Z,8.30
2023-03-19T14:23:36.181Z,11.00
2023-03-19T14:26:17.163Z,6.40
2023-03-19T14:28:59.326Z,6.60
2023-03-19T14:31:45.411Z,7.30
2023-03-19T14:34:25.206Z,6.40
2023-03-19T14:37:01.488Z,7.00
2023-03-19T14:39:32.717Z,7.50
2023-03-19T14:42:05.735Z,7.40
2023-03-19T14:45:06.573Z,8.50
2023-03-19T14:48:00.371Z,7.20
2023-03-19T14:50:56.751Z,8.80
2023-03-19T14:53:37.891Z,7.30
2023-03-19T14:56:14.943Z,7.90
2023-03-19T14:58:52.619Z,7.60
2023-03-19T15:01:26.253Z,6.80
2023-03-19T15:03:59.860Z,8.90
2023-03-19T15:06:33.562Z,6.90
2023-03-19T15:09:04.845Z,8.10
2023-03-19T15:11:51.686Z,7.70
2023-03-19T15:14:43.527Z,8.90
2023-03-19T15:17:21.969Z,7.40
2023-03-19T15:19:51.551Z,6.40
2023-03-19T15:22:30.662Z,5.20
2023-03-19T15:25:07.744Z,6.10
2023-03-19T15:27:37.883Z,7.70
2023-03-19T15:30:21.888Z,6.40
2023-03-19T15:33:04.396Z,5.80
2023-03-19T15:35:37.722Z,7.20
2023-03-19T15:38:10.998Z,8.40
2023-03-19T15:40:42.461Z,6.10
2023-03-19T15:43:13.032Z,5.70
2023-03-19T15:45:46.867Z,7.60
2023-03-19T15:48:21.762Z,6.90
2023-03-19T15:50:54.350Z,6.70
2023-03-19T15:53:26.086Z,5.70
2023-03-19T15:55:56.262Z,7.20
2023-03-19T15:58:29.176Z,7.00
2023-03-19T16:01:01.064Z,7.20
2023-03-19T16:03:37.199Z,6.30
2023-03-19T16:06:13.139Z,6.70
2023-03-19T16:08:48.888Z,5.70
2023-03-19T16:11:29.488Z,8.00
2023-03-19T16:14:00.364Z,7.20
2023-03-19T16:16:32.679Z,8.50
2023-03-19T16:19:01.920Z,6.40
2023-03-19T16:21:36.086Z,7.40
2023-03-19T16:24:14.506Z,6.70
2023-03-19T16:26:46.663Z,5.80
2023-03-19T16:29:22.730Z,6.80
2023-03-19T16:31:53.683Z,8.10
2023-03-19T16:34:26.244Z,7.40
2023-03-19T16:36:55.209Z,8.60
2023-03-19T16:39:32.515Z,11.70
2023-03-19T16:42:28.687Z,12.70
2023-03-19T16:44:57.843Z,11.80
2023-03-19T16:47:26.740Z,9.70
2023-03-19T16:49:56.031Z,12.10
2023-03-19T16:52:25.794Z,13.70
2023-03-19T16:54:56.167Z,11.50
2023-03-19T16:57:25.277Z,14.70
2023-03-19T16:59:54.449Z,13.60
2023-03-19T17:02:23.944Z,12.70
2023-03-19T17:04:52.999Z,13.30
2023-03-19T17:07:22.070Z,14.90
2023-03-19T17:09:50.952Z,12.80
2023-03-19T17:12:19.896Z,14.90
2023-03-19T17:14:52.389Z,16.90
2023-03-19T17:17:22.096Z,16.30
2023-03-19T17:19:51.596Z,14.30
2023-03-19T17:22:20.817Z,13.60
2023-03-19T17:24:50.031Z,13.30
2023-03-19T17:27:19.068Z,14.00
2023-03-19T17:29:47.924Z,17.10
2023-03-19T17:32:19.892Z,15.80
2023-03-19T17:34:48.877Z,14.40
2023-03-19T17:37:17.891Z,14.10
2023-03-19T17:39:47.115Z,14.30
2023-03-19T17:42:21.089Z,15.90
2023-03-19T17:44:50.140Z,12.90
2023-03-19T17:47:19.679Z,15.00
2023-03-19T17:49:48.623Z,13.80
2023-03-19T17:52:19.022Z,15.30
2023-03-19T17:54:47.994Z,13.20
2023-03-19T17:57:17.371Z,14.60
2023-03-19T17:59:46.394Z,15.40
2023-03-19T18:02:25.440Z,17.20
2023-03-19T18:04:54.549Z,17.00
2023-03-19T18:07:23.447Z,15.80
2023-03-19T18:09:53.002Z,15.70
2023-03-19T18:12:22.156Z,17.20
2023-03-19T18:14:51.215Z,15.70
2023-03-19T18:17:20.376Z,15.90
2023-03-19T18:19:51.748Z,17.90
2023-03-19T18:22:21.059Z,19.20
2023-03-19T18:24:49.917Z,20.10
2023-03-19T18:27:18.832Z,20.40
2023-03-19T18:29:47.922Z,16.90
2023-03-19T18:32:24.076Z,18.20
2023-03-19T18:34:53.466Z,19.10
2023-03-19T18:37:22.604Z,19.00
2023-03-19T18:39:51.528Z,20.20
2023-03-19T18:42:22.076Z,19.80
2023-03-19T18:44:51.080Z,16.90
2023-03-19T18:47:19.958Z,19.40
2023-03-19T18:49:49.449Z,23.10
2023-03-19T18:52:19.627Z,23.00
2023-03-19T18:54:49.139Z,19.80
2023-03-19T18:57:18.313Z,21.50
2023-03-19T18:59:47.348Z,20.20
2023-03-19T19:02:28.633Z,18.70
2023-03-19T19:04:57.805Z,20.70
2023-03-19T19:07:26.799Z,19.60
2023-03-19T19:09:55.768Z,20.90
2023-03-19T19:12:26.625Z,18.50
2023-03-19T19:14:56.716Z,19.90
2023-03-19T19:17:28.716Z,20.90
2023-03-19T19:19:58.292Z,19.70
2023-03-19T19:22:29.228Z,22.60
2023-03-19T19:24:58.184Z,21.60
2023-03-19T19:27:27.192Z,20.10
2023-03-19T19:29:56.384Z,20.10
2023-03-19T19:32:28.869Z,21.40
2023-03-19T19:34:58.111Z,20.50
2023-03-19T19:37:27.097Z,19.30
2023-03-19T19:39:55.988Z,18.20
2023-03-19T19:42:25.528Z,20.40
2023-03-19T19:44:58.242Z,22.00
2023-03-19T19:47:27.843Z,19.00
2023-03-19T19:49:56.794Z,19.50
2023-03-19T19:52:25.899Z,18.90
2023-03-19T19:54:54.791Z,19.30
2023-03-19T19:57:24.397Z,19.70
2023-03-19T19:59:55.395Z,18.50
2023-03-19T20:02:27.849Z,18.50
2023-03-19T20:04:57.598Z,15.70
2023-03-19T20:07:26.882Z,18.20
2023-03-19T20:09:55.892Z,18.00
2023-03-19T20:12:29.563Z,15.10
2023-03-19T20:14:58.722Z,15.20
2023-03-19T20:17:27.838Z,15.80
2023-03-19T20:19:56.670Z,16.00
2023-03-19T20:22:25.635Z,16.00
2023-03-19T20:24:54.611Z,16.50
2023-03-19T20:27:29.601Z,17.40
2023-03-19T20:29:59.040Z,21.20
2023-03-19T20:32:33.348Z,17.10
2023-03-19T20:35:02.717Z,17.90
2023-03-19T20:37:31.950Z,18.70
2023-03-19T20:40:00.936Z,17.90
2023-03-19T20:42:32.312Z,17.40
2023-03-19T20:45:01.820Z,17.90
2023-03-19T20:47:32.341Z,17.90
2023-03-19T20:50:01.325Z,15.20
2023-03-19T20:52:30.161Z,15.40
2023-03-19T20:55:00.354Z,17.70
2023-03-19T20:57:30.111Z,19.50
2023-03-19T21:00:02.566Z,20.70
2023-03-19T21:02:31.717Z,20.60
2023-03-19T21:05:07.052Z,20.90
2023-03-19T21:07:36.096Z,21.50
2023-03-19T21:10:20.226Z,20.30
2023-03-19T21:12:49.373Z,20.30
2023-03-19T21:15:18.383Z,18.90
2023-03-19T21:17:47.425Z,23.60
2023-03-19T21:20:21.437Z,23.60
2023-03-19T21:22:54.798Z,23.40
2023-03-19T21:25:27.925Z,24.90
2023-03-19T21:27:59.092Z,22.80
2023-03-19T21:30:28.307Z,22.90
2023-03-19T21:32:57.368Z,23.60
2023-03-19T21:35:28.294Z,26.20
2023-03-19T21:37:57.157Z,25.70
2023-03-19T21:40:30.188Z,25.80
2023-03-19T21:43:02.467Z,25.10
2023-03-19T21:45:35.001Z,27.20
2023-03-19T21:48:22.917Z,31.30
2023-03-19T21:50:52.729Z,29.90
2023-03-19T21:53:22.105Z,31.80
2023-03-19T21:55:52.119Z,33.00
2023-03-19T21:58:28.131Z,35.30
2023-03-19T22:00:57.287Z,33.90
2023-03-19T22:03:27.329Z,32.60
2023-03-19T22:05:56.772Z,34.80
2023-03-19T22:08:26.788Z,34.80
2023-03-19T22:10:57.625Z,37.00
2023-03-19T22:13:29.231Z,36.00
2023-03-19T22:15:59.978Z,39.40
2023-03-19T22:18:29.868Z,35.80
2023-03-19T22:20:58.939Z,36.90
2023-03-19T22:23:27.903Z,42.10
2023-03-19T22:25:56.852Z,39.50
2023-03-19T22:28:31.262Z,38.50
2023-03-19T22:31:02.506Z,41.00
2023-03-19T22:33:31.626Z,41.60
2023-03-19T22:36:00.575Z,38.30
2023-03-19T22:38:30.446Z,42.60
2023-03-19T22:40:59.367Z,40.90
2023-03-19T22:43:30.951Z,41.50
2023-03-19T22:46:03.515Z,41.30
2023-03-19T22:48:32.558Z,43.00
2023-03-19T22:51:01.498Z,46.30
2023-03-19T22:53:32.910Z,48.00
2023-03-19T22:56:02.221Z,47.00
2023-03-19T22:58:31.399Z,46.60
2023-03-19T23:01:00.878Z,47.80
2023-03-19T23:03:31.068Z,52.60
2023-03-19T23:06:02.891Z,49.20
2023-03-19T23:08:31.880Z,50.00
2023-03-19T23:11:01.080Z,44.40
2023-03-19T23:13:30.806Z,48.70
2023-03-19T23:16:00.382Z,47.00
2023-03-19T23:18:32.425Z,47.80
2023-03-19T23:21:02.199Z,49.70
2023-03-19T23:23:33.011Z,51.80
2023-03-19T23:26:02.094Z,46.90
2023-03-19T23:28:34.161Z,45.60
2023-03-19T23:31:05.947Z,46.20
2023-03-19T23:33:34.903Z,45.60
2023-03-19T23:36:04.418Z,43.40
2023-03-19T23:38:33.354Z,45.60
2023-03-19T23:41:02.328Z,46.30
2023-03-19T23:43:33.314Z,43.70
2023-03-19T23:46:02.959Z,43.40
2023-03-19T23:48:36.310Z,47.00
2023-03-19T23:51:06.787Z,42.10
2023-03-19T23:53:36.225Z,40.70
2023-03-19T23:56:14.727Z,39.70
2023-03-19T23:58:44.520Z,41.50
